Time;durP1;ratioP1;P1;durP2;ratioP2;P2;SDS_P1;SDS_P2;PMS_P1;PMS_P2;Temp;Humidity;BMP_temperature;BMP_pressure;BME280_temperature;BME280_humidity;BME280_pressure;Samples;Min_cycle;Max_cycle;Signal;HPM_P1;HPM_P2
2023/05/12 00:00:58;;;;;;;7.10;4.65;;;;;;;8.39;100.00;92077.16;4950865;29;20114;-76
2023/05/12 00:03:24;;;;;;;7.13;4.70;;;;;;;8.39;100.00;92076.38;4955058;28;20087;-76
2023/05/12 00:05:50;;;;;;;7.68;4.68;;;;;;;8.37;100.00;92071.44;4953829;29;20042;-76
2023/05/12 00:08:16;;;;;;;8.07;5.10;;;;;;;8.38;100.00;92072.22;4955501;29;20094;-76
2023/05/12 00:10:42;;;;;;;7.82;5.05;;;;;;;8.37;100.00;92071.44;4954642;29;20477;-76
2023/05/12 00:13:08;;;;;;;7.30;4.78;;;;;;;8.54;100.00;92070.97;4954660;28;20046;-76
2023/05/12 00:15:35;;;;;;;6.70;4.75;;;;;;;8.42;100.00;92074.03;4955252;29;20115;-76
2023/05/12 00:18:01;;;;;;;7.30;4.93;;;;;;;8.43;100.00;92069.56;4937995;29;20030;-76
2023/05/12 00:20:26;;;;;;;7.10;5.10;;;;;;;8.61;100.00;92070.63;4938252;29;20039;-76
2023/05/12 00:22:52;;;;;;;7.80;5.15;;;;;;;8.49;100.00;92073.66;4954998;28;20489;-76
2023/05/12 00:25:17;;;;;;;7.50;5.15;;;;;;;8.44;100.00;92069.28;4955627;29;20039;-76
2023/05/12 00:27:43;;;;;;;8.82;6.00;;;;;;;8.45;100.00;92063.00;4955400;29;20035;-76
2023/05/12 00:30:09;;;;;;;9.30;5.78;;;;;;;8.57;100.00;92067.78;4937674;29;20051;-76
2023/05/12 00:32:35;;;;;;;8.27;5.43;;;;;;;8.48;100.00;92062.44;4954842;28;20516;-76
2023/05/12 00:35:00;;;;;;;8.02;5.95;;;;;;;8.50;100.00;92064.78;4955052;29;20039;-76
2023/05/12 00:37:27;;;;;;;9.77;6.90;;;;;;;8.45;100.00;92070.06;4953980;29;20062;-75
2023/05/12 00:39:52;;;;;;;8.80;6.47;;;;;;;8.44;100.00;92071.13;4953664;29;20042;-76
2023/05/12 00:42:18;;;;;;;11.02;6.93;;;;;;;8.39;100.00;92064.09;4954788;29;20416;-76
2023/05/12 00:44:44;;;;;;;9.10;6.40;;;;;;;8.37;100.00;92065.44;4954665;28;20035;-76
2023/05/12 00:47:09;;;;;;;9.32;6.50;;;;;;;8.36;100.00;92064.69;4954424;29;20039;-76
2023/05/12 00:49:35;;;;;;;8.88;7.03;;;;;;;8.41;100.00;92066.47;4953515;29;20034;-76
2023/05/12 00:52:02;;;;;;;9.32;6.65;;;;;;;8.58;100.00;92061.53;4951757;29;20484;-76
2023/05/12 00:54:29;;;;;;;9.65;6.72;;;;;;;8.44;100.00;92065.91;4953686;28;20217;-76
2023/05/12 00:56:54;;;;;;;9.90;6.93;;;;;;;8.41;100.00;92066.47;4953321;29;20529;-76
2023/05/12 00:59:21;;;;;;;9.68;6.78;;;;;;;8.37;100.00;92061.00;4953539;29;20071;-76
2023/05/12 01:01:48;;;;;;;8.93;6.63;;;;;;;8.35;100.00;92063.13;4954065;29;20556;-76
2023/05/12 01:04:15;;;;;;;9.40;6.82;;;;;;;8.36;100.00;92059.47;4937291;29;20039;-76
2023/05/12 01:06:54;;;;;;;10.43;6.90;;;;;;;8.33;100.00;92058.19;4954785;29;20071;-75
2023/05/12 01:09:20;;;;;;;9.18;6.90;;;;;;;8.29;100.00;92061.66;4937563;29;20041;-76
2023/05/12 01:11:45;;;;;;;9.95;6.88;;;;;;;8.37;100.00;92060.22;4918122;29;20036;-76
2023/05/12 01:14:11;;;;;;;10.38;7.65;;;;;;;8.34;100.00;92053.75;4952291;28;20565;-76
2023/05/12 01:16:47;;;;;;;10.85;7.65;;;;;;;8.32;100.00;92050.66;4952838;29;20485;-76
2023/05/12 01:19:46;;;;;;;10.48;7.68;;;;;;;8.32;100.00;92048.03;4952956;29;20039;-76
2023/05/12 01:22:13;;;;;;;11.43;7.25;;;;;;;8.33;100.00;92052.97;4916211;29;20142;-76
2023/05/12 01:25:03;;;;;;;9.48;7.00;;;;;;;8.32;100.00;92048.03;4920500;29;20046;-75
2023/05/12 01:27:31;;;;;;;9.73;7.07;;;;;;;8.29;100.00;92043.41;4952810;29;20458;-76
2023/05/12 01:30:01;;;;;;;10.25;6.97;;;;;;;8.32;100.00;92037.59;4952697;29;20023;-76
2023/05/12 01:32:31;;;;;;;12.07;8.02;;;;;;;8.32;100.00;92037.59;4936854;28;20413;-75
2023/05/12 01:34:57;;;;;;;10.45;7.72;;;;;;;8.23;100.00;92040.06;4952259;29;20035;-76
2023/05/12 01:37:25;;;;;;;8.73;5.38;;;;;;;8.42;100.00;92036.72;4953186;29;20125;-76
2023/05/12 01:39:52;;;;;;;10.10;7.15;;;;;;;8.37;100.00;92044.59;4921317;29;20047;-76
2023/05/12 01:42:19;;;;;;;11.52;7.20;;;;;;;8.27;100.00;92043.66;4936557;29;20453;-76
2023/05/12 01:44:45;;;;;;;8.68;6.30;;;;;;;8.26;100.00;92047.34;4920103;29;20035;-76
2023/05/12 01:47:12;;;;;;;8.77;5.53;;;;;;;8.35;100.00;92042.25;4936444;29;20130;-76
2023/05/12 01:49:39;;;;;;;7.63;4.38;;;;;;;8.24;100.00;92048.66;4951727;29;20122;-76
2023/05/12 01:52:07;;;;;;;5.60;3.78;;;;;;;8.20;100.00;92048.47;4952432;29;20042;-76
2023/05/12 01:54:33;;;;;;;6.85;4.50;;;;;;;8.04;100.00;92042.69;4951884;28;20043;-75
2023/05/12 01:56:59;;;;;;;6.28;4.15;;;;;;;8.05;100.00;92041.63;4953177;29;20122;-75
2023/05/12 01:59:25;;;;;;;6.32;4.22;;;;;;;7.98;100.00;92040.41;4952145;29;20046;-76
2023/05/12 02:01:51;;;;;;;7.72;4.57;;;;;;;7.97;100.00;92046.66;4950746;29;20062;-76
2023/05/12 02:04:23;;;;;;;6.97;4.93;;;;;;;8.02;100.00;92044.78;4939616;29;20578;-76
2023/05/12 02:06:49;;;;;;;7.32;4.70;;;;;;;8.01;100.00;92043.22;4951984;29;20035;-76
2023/05/12 02:09:15;;;;;;;8.35;4.60;;;;;;;8.00;100.00;92046.13;4952241;29;20039;-76
2023/05/12 02:11:40;;;;;;;7.57;5.20;;;;;;;8.08;100.00;92042.88;4951548;29;20062;-75
2023/05/12 02:14:06;;;;;;;7.90;5.00;;;;;;;8.04;100.00;92044.53;4935737;29;20058;-75
2023/05/12 02:16:31;;;;;;;8.23;5.47;;;;;;;8.03;100.00;92042.94;4935710;29;20121;-76
2023/05/12 02:18:57;;;;;;;8.40;5.45;;;;;;;7.99;100.00;92044.56;4951955;29;20035;-75
2023/05/12 02:21:23;;;;;;;7.63;5.47;;;;;;;7.96;100.00;92040.69;4951635;29;20405;-76
2023/05/12 02:23:50;;;;;;;8.70;5.32;;;;;;;7.97;100.00;92041.47;4920241;29;20429;-75
2023/05/12 02:26:16;;;;;;;10.10;5.82;;;;;;;7.94;100.00;92045.41;4933854;29;20050;-75
2023/05/12 02:28:42;;;;;;;9.35;6.60;;;;;;;7.96;100.00;92035.47;4931874;29;20477;-75
2023/05/12 02:31:07;;;;;;;8.70;5.63;;;;;;;8.14;100.00;92037.31;4950407;29;20038;-76
2023/05/12 02:33:33;;;;;;;8.55;5.93;;;;;;;8.07;100.00;92041.34;4935864;29;20504;-76
2023/05/12 02:35:59;;;;;;;8.57;5.95;;;;;;;8.00;100.00;92036.47;4950123;29;20043;-75
2023/05/12 02:38:25;;;;;;;10.75;6.07;;;;;;;8.00;100.00;92038.31;4932790;29;20509;-76
2023/05/12 02:40:50;;;;;;;485.05;13.35;;;;;;;7.95;100.00;92041.75;4934636;29;20031;-76
2023/05/12 02:43:16;;;;;;;1059.53;25.23;;;;;;;7.94;100.00;92037.59;4935464;29;20498;-76
2023/05/12 02:45:42;;;;;;;876.97;20.83;;;;;;;7.95;100.00;92038.34;4934581;29;20520;-76
2023/05/12 02:48:07;;;;;;;615.70;15.15;;;;;;;7.95;100.00;92044.38;4946038;29;20363;-75
2023/05/12 02:50:33;;;;;;;711.42;17.27;;;;;;;7.95;100.00;92039.16;4931798;29;20046;-76
2023/05/12 02:52:59;;;;;;;327.63;9.05;;;;;;;8.21;100.00;92031.75;4950491;29;20514;-75
2023/05/12 02:55:24;;;;;;;435.77;12.80;;;;;;;8.12;100.00;92034.22;4934827;29;20134;-76
2023/05/12 02:57:50;;;;;;;357.05;10.77;;;;;;;8.02;100.00;92034.38;4935379;29;20031;-76
2023/05/12 03:00:16;;;;;;;8.80;4.72;;;;;;;7.99;100.00;92024.47;4935056;29;20039;-76
2023/05/12 03:02:41;;;;;;;8.23;5.57;;;;;;;7.98;100.00;92028.16;4950881;28;20510;-76
2023/05/12 03:05:08;;;;;;;10.35;7.20;;;;;;;7.95;100.00;92033.94;4934154;29;20027;-76
2023/05/12 03:07:35;;;;;;;12.95;6.50;;;;;;;8.02;100.00;92023.94;4919646;29;20035;-76
2023/05/12 03:10:00;;;;;;;8.05;5.38;;;;;;;8.23;100.00;92031.47;4952152;29;20437;-76
2023/05/12 03:12:28;;;;;;;9.00;5.57;;;;;;;8.22;100.00;92022.09;4952480;29;20038;-76
2023/05/12 03:14:54;;;;;;;10.60;7.10;;;;;;;8.11;100.00;92024.84;4951090;29;20039;-76
2023/05/12 03:17:20;;;;;;;9.20;6.43;;;;;;;8.09;100.00;92029.56;4950965;29;20043;-76
2023/05/12 03:19:47;;;;;;;11.75;6.38;;;;;;;8.09;100.00;92029.56;4932006;29;20040;-76
2023/05/12 03:22:15;;;;;;;9.98;6.57;;;;;;;8.07;100.00;92021.25;4935456;29;20696;-76
2023/05/12 03:24:41;;;;;;;11.52;6.47;;;;;;;8.05;100.00;92023.38;4950884;28;20049;-76
2023/05/12 03:27:06;;;;;;;9.00;5.93;;;;;;;8.03;100.00;92022.88;4933743;29;20046;-76
2023/05/12 03:29:32;;;;;;;270.60;9.48;;;;;;;8.00;100.00;92015.63;4934814;29;20520;-76
2023/05/12 03:32:01;;;;;;;228.02;9.07;;;;;;;8.01;100.00;92019.75;4917128;29;20454;-76
2023/05/12 03:34:27;;;;;;;12.50;5.63;;;;;;;7.99;100.00;92016.66;4935097;29;20039;-76
2023/05/12 03:36:54;;;;;;;496.77;13.80;;;;;;;7.98;100.00;92015.13;4934952;29;20114;-76
2023/05/12 03:39:22;;;;;;;700.08;17.20;;;;;;;7.96;100.00;92014.63;4951633;29;20045;-76
2023/05/12 03:41:47;;;;;;;557.13;14.15;;;;;;;7.96;100.00;92014.63;4934713;29;20035;-76
2023/05/12 03:44:13;;;;;;;143.82;8.05;;;;;;;7.95;100.00;92027.94;4950398;28;20109;-76
2023/05/12 03:46:39;;;;;;;612.50;14.77;;;;;;;7.92;100.00;92014.44;4934492;29;20049;-76
2023/05/12 03:49:04;;;;;;;607.90;15.10;;;;;;;7.90;100.00;92015.75;4951934;29;20545;-76
2023/05/12 03:51:30;;;;;;;393.00;11.82;;;;;;;7.90;100.00;92018.34;4934589;29;20042;-76
2023/05/12 03:53:56;;;;;;;87.10;6.90;;;;;;;7.91;100.00;92015.47;4951655;28;20055;-76
2023/05/12 03:56:21;;;;;;;1042.40;23.25;;;;;;;7.93;100.00;92015.19;4934821;29;20035;-76
2023/05/12 03:58:47;;;;;;;939.58;20.83;;;;;;;7.86;100.00;92005.13;4934358;29;20576;-76
2023/05/12 04:01:15;;;;;;;543.25;13.23;;;;;;;7.91;100.00;92012.09;4918444;29;20043;-75
2023/05/12 04:03:40;;;;;;;690.22;16.35;;;;;;;7.95;100.00;92007.88;4948564;28;20031;-76
2023/05/12 04:06:07;;;;;;;785.28;18.20;;;;;;;7.86;100.00;92014.78;4934439;29;20157;-76
2023/05/12 04:08:33;;;;;;;721.00;16.58;;;;;;;7.77;100.00;92012.00;4951767;29;20067;-76
2023/05/12 04:11:00;;;;;;;810.67;18.80;;;;;;;7.81;100.00;92009.59;4934350;29;20035;-76
2023/05/12 04:13:27;;;;;;;1138.45;25.23;;;;;;;7.75;100.00;92013.34;4918883;29;20181;-76
2023/05/12 04:15:57;;;;;;;451.70;10.38;;;;;;;7.71;100.00;92013.91;4951711;29;20400;-76
2023/05/12 04:18:23;;;;;;;507.73;12.90;;;;;;;7.81;100.00;92014.81;4935706;29;20349;-76
2023/05/12 04:20:49;;;;;;;438.17;12.13;;;;;;;7.78;100.00;92013.56;4937755;29;20075;-76
2023/05/12 04:23:15;;;;;;;203.30;6.60;;;;;;;7.80;100.00;92015.88;4938148;29;20134;-76
2023/05/12 04:25:41;;;;;;;284.33;8.30;;;;;;;7.77;100.00;92016.44;4955244;29;20528;-76
2023/05/12 04:28:08;;;;;;;893.13;24.20;;;;;;;7.59;100.00;92016.13;4938278;29;20039;-76
2023/05/12 04:30:34;;;;;;;885.65;19.83;;;;;;;7.59;100.00;92018.75;4937598;29;20035;-76
2023/05/12 04:33:01;;;;;;;554.92;15.13;;;;;;;7.65;100.00;92024.66;4937884;29;20031;-77
2023/05/12 04:35:27;;;;;;;503.27;12.80;;;;;;;7.62;100.00;92026.00;4952806;29;20062;-76
2023/05/12 04:37:53;;;;;;;577.58;12.85;;;;;;;7.67;100.00;92028.53;4922217;29;20123;-76
2023/05/12 04:40:18;;;;;;;514.20;14.77;;;;;;;7.65;100.00;92035.06;4937505;29;20493;-76
2023/05/12 04:42:44;;;;;;;226.00;10.57;;;;;;;7.65;100.00;92028.03;4953306;28;20409;-77
2023/05/12 04:45:10;;;;;;;495.13;14.45;;;;;;;7.65;100.00;92035.84;4920156;29;20082;-76
2023/05/12 04:47:36;;;;;;;824.40;20.85;;;;;;;7.67;100.00;92041.56;4948986;29;20050;-76
2023/05/12 04:50:03;;;;;;;279.63;11.55;;;;;;;7.68;100.00;92043.13;4955021;29;20372;-76
2023/05/12 04:52:30;;;;;;;26.02;8.45;;;;;;;7.72;100.00;92053.75;4932908;29;20048;-76
2023/05/12 04:54:56;;;;;;;319.38;11.00;;;;;;;7.74;100.00;92053.47;4943264;29;20486;-76
2023/05/12 04:57:22;;;;;;;392.30;12.63;;;;;;;7.80;100.00;92052.38;4912731;29;20051;-76
2023/05/12 04:59:47;;;;;;;216.63;9.77;;;;;;;7.92;100.00;92050.91;4949766;29;20043;-76
2023/05/12 05:02:13;;;;;;;268.83;10.55;;;;;;;7.86;100.00;92043.44;4927995;29;20517;-77
2023/05/12 05:04:40;;;;;;;69.18;8.80;;;;;;;7.78;100.00;92044.81;4920344;29;20408;-84
2023/05/12 05:07:06;;;;;;;17.02;8.18;;;;;;;7.79;100.00;92051.59;4934231;29;20502;-78
2023/05/12 05:09:32;;;;;;;140.05;9.27;;;;;;;7.82;100.00;92050.25;4935272;29;20130;-80
2023/05/12 05:11:58;;;;;;;19.08;8.20;;;;;;;7.77;100.00;92047.69;4951634;29;20035;-78
2023/05/12 05:14:24;;;;;;;161.93;9.07;;;;;;;7.82;100.00;92056.25;4938024;29;20039;-79
2023/05/12 05:16:49;;;;;;;141.85;8.30;;;;;;;7.90;100.00;92057.44;4936552;29;20055;-77
2023/05/12 05:19:15;;;;;;;231.68;9.65;;;;;;;7.91;100.00;92051.97;4932993;29;20032;-79
2023/05/12 05:21:41;;;;;;;551.22;13.18;;;;;;;7.87;100.00;92050.97;4935198;29;20031;-80
2023/05/12 05:24:07;;;;;;;299.92;9.40;;;;;;;7.84;100.00;92058.56;4920987;29;20035;-79
2023/05/12 05:26:33;;;;;;;364.50;10.10;;;;;;;7.79;100.00;92056.00;4937396;29;20611;-80
2023/05/12 05:28:58;;;;;;;474.25;11.48;;;;;;;7.80;100.00;92047.16;4937253;29;20498;-80
2023/05/12 05:31:27;;;;;;;373.88;9.18;;;;;;;7.77;100.00;92058.13;4919593;29;20035;-78
2023/05/12 05:33:56;;;;;;;204.35;7.45;;;;;;;7.81;100.00;92053.91;4937736;29;20035;-78
2023/05/12 05:36:25;;;;;;;562.30;13.73;;;;;;;7.78;100.00;92063.06;4936198;29;20524;-78
2023/05/12 05:38:51;;;;;;;504.40;12.25;;;;;;;7.77;100.00;92063.31;4939789;29;20032;-77
2023/05/12 05:41:17;;;;;;;272.90;6.60;;;;;;;7.93;100.00;92064.72;4937525;29;20066;-78
2023/05/12 05:43:42;;;;;;;510.75;12.63;;;;;;;7.84;100.00;92064.56;4917673;29;20454;-78
2023/05/12 05:46:08;;;;;;;787.38;17.42;;;;;;;7.73;100.00;92068.34;4945584;29;20418;-78
2023/05/12 05:48:35;;;;;;;654.58;16.88;;;;;;;7.76;100.00;92069.59;4918111;29;20048;-78
2023/05/12 05:51:01;;;;;;;982.55;22.80;;;;;;;7.80;100.00;92068.00;4921452;29;20079;-78
2023/05/12 05:53:27;;;;;;;892.10;21.38;;;;;;;7.85;100.00;92070.53;4937171;29;20048;-78
2023/05/12 05:55:53;;;;;;;397.98;11.90;;;;;;;7.95;100.00;92078.25;4918746;29;20144;-78
2023/05/12 05:58:18;;;;;;;63.83;8.55;;;;;;;8.02;100.00;92072.69;4936997;29;20071;-79
2023/05/12 06:00:45;;;;;;;12.95;6.28;;;;;;;8.05;100.00;92074.72;4937341;29;20040;-78
2023/05/12 06:03:11;;;;;;;240.38;7.80;;;;;;;8.10;100.00;92085.09;4952944;28;20097;-79
2023/05/12 06:05:37;;;;;;;107.93;6.75;;;;;;;8.13;100.00;92077.50;4937823;29;20035;-78
2023/05/12 06:08:04;;;;;;;384.38;13.00;;;;;;;8.04;100.00;92076.56;4937678;29;20108;-78
2023/05/12 06:10:30;;;;;;;328.63;11.15;;;;;;;8.01;100.00;92079.72;4937766;29;20051;-78
2023/05/12 06:12:56;;;;;;;403.45;13.85;;;;;;;8.04;100.00;92079.19;4937085;29;20035;-79
2023/05/12 06:15:21;;;;;;;549.70;16.25;;;;;;;8.01;100.00;92091.97;4939033;29;20089;-78
2023/05/12 06:17:48;;;;;;;222.93;9.82;;;;;;;8.04;100.00;92088.84;4922451;29;20397;-78
2023/05/12 06:20:14;;;;;;;311.33;13.45;;;;;;;8.03;100.00;92093.25;4937443;29;20035;-79
2023/05/12 06:22:41;;;;;;;668.33;18.67;;;;;;;8.02;100.00;92086.50;4937505;29;20032;-78
2023/05/12 06:25:07;;;;;;;13.70;8.35;;;;;;;8.11;100.00;92084.06;4938587;29;20075;-78
2023/05/12 06:27:32;;;;;;;12.82;7.25;;;;;;;8.31;100.00;92094.22;4928888;29;20421;-79
2023/05/12 06:29:58;;;;;;;11.75;7.93;;;;;;;8.42;100.00;92094.88;4937025;29;20036;-78
2023/05/12 06:32:25;;;;;;;12.18;7.18;;;;;;;8.61;100.00;92091.50;4938315;29;20027;-78
2023/05/12 06:34:50;;;;;;;12.93;7.57;;;;;;;8.78;100.00;92094.38;4938078;29;20078;-79
2023/05/12 06:37:16;;;;;;;13.95;7.93;;;;;;;8.96;100.00;92093.56;4936303;29;20039;-79
2023/05/12 06:39:42;;;;;;;321.52;13.80;;;;;;;9.03;100.00;92095.03;4938320;29;20047;-78
2023/05/12 06:42:07;;;;;;;239.15;10.50;;;;;;;9.05;100.00;92095.53;4937162;29;20414;-78
2023/05/12 06:44:39;;;;;;;58.97;5.72;;;;;;;8.97;100.00;92094.34;4935958;29;20032;-79
2023/05/12 06:47:05;;;;;;;39.45;6.97;;;;;;;8.83;100.00;92104.75;4937794;29;20550;-78
2023/05/12 06:49:34;;;;;;;11.38;6.75;;;;;;;8.73;100.00;92100.44;4933875;29;20040;-78
2023/05/12 06:52:00;;;;;;;214.23;10.80;;;;;;;8.66;100.00;92100.00;4939097;29;20075;-78
2023/05/12 06:54:25;;;;;;;11.40;5.95;;;;;;;8.70;100.00;92105.47;4957055;28;20035;-78
2023/05/12 06:56:51;;;;;;;15.10;6.85;;;;;;;8.74;100.00;92098.63;4956244;29;20409;-78
2023/05/12 06:59:17;;;;;;;10.10;5.70;;;;;;;8.83;100.00;92103.97;4939395;29;20133;-78
2023/05/12 07:01:43;;;;;;;9.75;6.25;;;;;;;8.82;100.00;92108.41;4957081;29;20391;-78
2023/05/12 07:04:08;;;;;;;9.82;5.88;;;;;;;8.85;100.00;92101.81;4956608;28;20043;-78
2023/05/12 07:06:34;;;;;;;9.02;5.97;;;;;;;9.03;100.00;92097.63;4936572;29;20380;-78
2023/05/12 07:09:01;;;;;;;8.88;5.55;;;;;;;9.20;100.00;92105.72;4955680;29;20085;-78
2023/05/12 07:11:27;;;;;;;9.27;5.55;;;;;;;9.24;100.00;92101.47;4940045;28;20051;-78
2023/05/12 07:13:52;;;;;;;9.10;5.60;;;;;;;9.62;100.00;92098.75;4955586;28;20094;-78
2023/05/12 07:16:18;;;;;;;6.80;4.53;;;;;;;9.37;100.00;92108.59;4955488;29;20039;-78
2023/05/12 07:18:44;;;;;;;8.18;5.03;;;;;;;9.37;100.00;92100.75;4938655;29;20055;-78
2023/05/12 07:21:10;;;;;;;7.57;5.10;;;;;;;9.42;100.00;92106.94;4955534;29;20392;-79
2023/05/12 07:23:36;;;;;;;62.17;6.80;;;;;;;9.45;100.00;92108.97;4956107;28;20074;-78
2023/05/12 07:26:04;;;;;;;49.28;6.53;;;;;;;9.38;100.00;92106.72;4955758;29;20460;-79
2023/05/12 07:28:36;;;;;;;250.73;11.20;;;;;;;9.38;100.00;92104.88;4955278;29;20047;-78
2023/05/12 07:31:07;;;;;;;729.88;23.25;;;;;;;9.20;100.00;92110.94;4954947;29;20039;-78
2023/05/12 07:33:34;;;;;;;155.65;8.90;;;;;;;9.34;100.00;92111.78;4939540;29;20074;-78
2023/05/12 07:36:00;;;;;;;21.33;5.63;;;;;;;9.45;100.00;92108.97;4955692;29;20047;-78
2023/05/12 07:38:25;;;;;;;34.42;5.50;;;;;;;9.53;100.00;92105.72;4940049;29;20118;-78
2023/05/12 07:40:51;;;;;;;11.85;5.90;;;;;;;9.47;100.00;92106.84;4939282;29;20085;-77
2023/05/12 07:43:17;;;;;;;9.77;5.65;;;;;;;9.40;100.00;92102.00;4939032;29;20046;-79
2023/05/12 07:45:43;;;;;;;10.43;5.50;;;;;;;9.53;100.00;92100.47;4956110;29;20065;-78
2023/05/12 07:48:12;;;;;;;9.02;5.18;;;;;;;9.85;100.00;92091.78;4939358;29;20035;-78
2023/05/12 07:50:38;;;;;;;7.57;4.63;;;;;;;10.02;100.00;92101.66;4956329;29;20090;-78
2023/05/12 07:53:04;;;;;;;6.53;4.53;;;;;;;10.01;100.00;92100.88;4956855;28;20051;-79
2023/05/12 07:55:32;;;;;;;7.25;4.88;;;;;;;10.04;100.00;92094.28;4960518;28;20126;-79
2023/05/12 07:57:58;;;;;;;8.23;4.78;;;;;;;10.03;100.00;92091.97;4959983;28;20043;-78
2023/05/12 08:00:23;;;;;;;8.02;4.93;;;;;;;10.40;100.00;92096.22;4942047;29;20035;-79
2023/05/12 08:02:49;;;;;;;7.60;4.82;;;;;;;10.65;100.00;92094.13;4942092;28;20035;-78
2023/05/12 08:05:15;;;;;;;7.53;4.80;;;;;;;10.82;100.00;92096.88;4959549;29;20031;-80
2023/05/12 08:07:42;;;;;;;5.80;4.13;;;;;;;11.01;100.00;92104.56;4959073;29;20039;-78
2023/05/12 08:10:10;;;;;;;5.47;3.88;;;;;;;10.65;100.00;92101.97;4958674;29;20051;-78
2023/05/12 08:12:36;;;;;;;6.85;4.50;;;;;;;10.46;100.00;92105.50;4940761;28;20039;-78
2023/05/12 08:15:01;;;;;;;5.18;3.42;;;;;;;10.49;100.00;92104.94;4958414;29;20066;-78
2023/05/12 08:17:27;;;;;;;6.80;4.18;;;;;;;10.87;100.00;92102.00;4957852;28;20332;-78
2023/05/12 08:19:53;;;;;;;6.20;3.83;;;;;;;10.72;100.00;92113.59;4958252;29;20027;-78
2023/05/12 08:22:18;;;;;;;5.28;3.40;;;;;;;10.76;100.00;92105.91;4958690;29;20086;-78
2023/05/12 08:24:45;;;;;;;7.05;4.50;;;;;;;10.55;100.00;92108.22;4959093;28;20150;-78
2023/05/12 08:27:10;;;;;;;5.75;3.63;;;;;;;10.23;100.00;92115.13;4958452;29;20031;-77
2023/05/12 08:29:36;;;;;;;10.23;4.38;;;;;;;10.26;100.00;92127.59;4958238;29;20042;-78
2023/05/12 08:32:02;;;;;;;7.07;4.43;;;;;;;10.24;100.00;92121.13;4940753;29;20065;-79
2023/05/12 08:34:27;;;;;;;9.32;5.25;;;;;;;10.33;100.00;92114.16;4956996;28;20090;-78
2023/05/12 08:36:53;;;;;;;6.82;4.78;;;;;;;10.40;100.00;92123.19;4940710;29;20035;-79
2023/05/12 08:39:19;;;;;;;7.03;4.45;;;;;;;10.37;100.00;92122.97;4940291;29;20023;-78
2023/05/12 08:41:54;;;;;;;10.27;4.53;;;;;;;10.27;100.00;92123.13;4958209;29;20098;-78
2023/05/12 08:44:21;;;;;;;6.82;4.20;;;;;;;10.28;100.00;92120.22;4956442;28;20046;-78
2023/05/12 08:46:47;;;;;;;6.80;4.05;;;;;;;10.27;100.00;92123.13;4957307;28;20094;-77
2023/05/12 08:49:16;;;;;;;5.85;3.78;;;;;;;10.53;100.00;92126.81;4957468;28;20055;-78
2023/05/12 08:51:43;;;;;;;6.43;4.20;;;;;;;10.54;100.00;92128.38;4958424;29;20031;-78
2023/05/12 08:54:11;;;;;;;8.43;4.93;;;;;;;10.53;100.00;92129.44;4957307;28;20055;-78
2023/05/12 08:56:38;;;;;;;9.07;3.00;;;;;;;11.01;100.00;92133.38;4959484;28;20138;-78
2023/05/12 08:59:06;;;;;;;7.68;3.78;;;;;;;11.16;100.00;92132.25;4957198;29;20553;-77
2023/05/12 09:01:34;;;;;;;5.63;3.10;;;;;;;11.33;100.00;92142.09;4943482;29;20070;-78
2023/05/12 09:04:00;;;;;;;4.28;2.65;;;;;;;11.40;100.00;92132.72;4957267;28;20055;-78
2023/05/12 09:06:26;;;;;;;5.60;3.65;;;;;;;11.37;100.00;92143.81;4956045;29;20027;-78
2023/05/12 09:08:52;;;;;;;6.07;3.55;;;;;;;11.35;100.00;92135.47;4953031;28;20066;-77
2023/05/12 09:11:20;;;;;;;6.15;4.13;;;;;;;11.63;100.00;92128.22;4953232;29;20440;-78
2023/05/12 09:14:08;;;;;;;4.78;3.00;;;;;;;11.93;100.00;92139.03;4962164;28;20426;-78
2023/05/12 09:16:41;;;;;;;4.68;3.33;;;;;;;11.70;100.00;92142.75;4957078;29;20382;-77
2023/05/12 09:19:07;;;;;;;5.00;2.92;;;;;;;11.58;100.00;92138.09;4954511;28;20039;-77
2023/05/12 09:21:33;;;;;;;4.47;2.67;;;;;;;11.40;100.00;92140.59;4941012;29;20095;-78
2023/05/12 09:24:07;;;;;;;5.75;2.67;;;;;;;11.30;100.00;92147.91;4957161;28;20075;-78
2023/05/12 09:26:54;;;;;;;5.47;2.70;;;;;;;11.06;100.00;92148.22;4956588;29;20027;-77
2023/05/12 09:29:20;;;;;;;4.22;2.25;;;;;;;10.94;100.00;92146.91;4951709;29;20475;-78
2023/05/12 09:31:53;;;;;;;8.23;2.90;;;;;;;11.03;100.00;92144.34;4955878;28;20156;-80
2023/05/12 09:34:19;;;;;;;4.75;1.80;;;;;;;11.42;100.00;92148.16;4951369;28;20471;-78
2023/05/12 09:36:55;;;;;;;3.72;2.13;;;;;;;11.60;100.00;92151.66;4960170;28;20145;-78
2023/05/12 09:39:20;;;;;;;2.78;1.88;;;;;;;11.96;100.00;92143.69;4943874;29;20536;-77
2023/05/12 09:41:46;;;;;;;2.53;1.63;;;;;;;11.68;100.00;92145.69;4949856;29;20031;-78
2023/05/12 09:44:15;;;;;;;1.83;1.17;;;;;;;11.65;100.00;92143.66;4938594;29;20043;-78
2023/05/12 09:46:41;;;;;;;2.45;1.50;;;;;;;11.60;100.00;92138.56;4957327;28;20042;-78
2023/05/12 09:49:07;;;;;;;3.25;1.35;;;;;;;11.64;100.00;92136.88;4939009;29;20493;-78
2023/05/12 09:51:32;;;;;;;2.00;1.33;;;;;;;11.68;100.00;92140.44;4941817;28;20570;-77
2023/05/12 09:53:59;;;;;;;1.90;1.25;;;;;;;11.62;100.00;92139.03;4955970;28;20536;-77
2023/05/12 09:56:30;;;;;;;2.70;1.40;;;;;;;11.45;100.00;92150.94;4964550;28;20039;-78
2023/05/12 09:58:56;;;;;;;3.28;1.42;;;;;;;11.31;100.00;92144.25;4939283;29;20031;-78
2023/05/12 10:01:23;;;;;;;2.78;1.73;;;;;;;11.37;100.00;92143.81;4950362;28;20042;-78
2023/05/12 10:03:55;;;;;;;2.15;1.40;;;;;;;11.41;100.00;92147.38;4955811;28;20129;-78
2023/05/12 10:06:29;;;;;;;2.00;1.30;;;;;;;11.35;100.00;92148.59;4955679;28;20038;-78
2023/05/12 10:09:13;;;;;;;3.28;1.60;;;;;;;11.56;100.00;92143.63;4954618;29;20371;-78
2023/05/12 10:11:39;;;;;;;1.70;1.20;;;;;;;11.66;100.00;92150.44;4937308;29;20493;-78
2023/05/12 10:14:08;;;;;;;2.80;1.50;;;;;;;11.67;100.00;92152.78;4954566;28;20019;-77
2023/05/12 10:16:34;;;;;;;4.32;1.23;;;;;;;11.88;100.00;92155.69;4954189;28;20039;-77
2023/05/12 10:19:02;;;;;;;2.30;1.40;;;;;;;11.98;100.00;92156.50;4937508;29;20058;-77
2023/05/12 10:21:29;;;;;;;4.10;1.50;;;;;;;11.82;100.00;92158.69;4937043;29;20053;-77
2023/05/12 10:23:55;;;;;;;2.15;1.30;;;;;;;12.09;100.00;92152.53;4933965;29;20040;-77
2023/05/12 10:26:22;;;;;;;2.90;1.52;;;;;;;11.82;100.00;92162.13;4936625;29;20046;-78
2023/05/12 10:28:48;;;;;;;2.55;1.45;;;;;;;11.59;100.00;92153.50;4949221;29;20042;-78
2023/05/12 10:31:15;;;;;;;2.28;1.50;;;;;;;11.47;100.00;92163.75;4954392;29;20042;-78
2023/05/12 10:33:42;;;;;;;3.03;1.60;;;;;;;11.40;100.00;92164.19;4955720;28;20031;-78
2023/05/12 10:36:18;;;;;;;3.05;1.80;;;;;;;11.34;100.00;92164.59;4922586;29;20039;-77
2023/05/12 10:38:47;;;;;;;3.63;1.77;;;;;;;11.26;100.00;92158.22;4954724;29;20062;-78
2023/05/12 10:41:12;;;;;;;4.95;1.83;;;;;;;11.12;100.00;92158.25;4951497;28;20373;-77
2023/05/12 10:43:44;;;;;;;1.77;1.13;;;;;;;11.24;100.00;92163.00;4959005;28;20032;-78
2023/05/12 10:46:12;;;;;;;2.07;1.33;;;;;;;11.27;100.00;92164.25;4955850;29;20039;-77
2023/05/12 10:49:02;;;;;;;2.33;1.40;;;;;;;11.14;100.00;92160.59;4955739;28;20070;-78
2023/05/12 10:51:30;;;;;;;3.65;1.92;;;;;;;10.91;100.00;92160.56;4955598;29;20047;-78
2023/05/12 10:54:06;;;;;;;2.65;1.52;;;;;;;10.84;100.00;92163.59;4940079;28;20040;-78
2023/05/12 10:56:38;;;;;;;2.72;1.60;;;;;;;10.89;100.00;92167.94;4958665;28;20066;-78
2023/05/12 10:59:18;;;;;;;4.43;2.00;;;;;;;10.90;100.00;92161.66;4960193;28;20039;-77
2023/05/12 11:02:14;;;;;;;2.40;1.70;;;;;;;11.12;100.00;92168.75;4938795;29;20035;-78
2023/05/12 11:04:56;;;;;;;1.90;1.33;;;;;;;11.50;100.00;92160.53;4954264;28;20520;-77
2023/05/12 11:07:26;;;;;;;3.10;1.70;;;;;;;11.79;100.00;92162.72;4936162;28;20030;-78
2023/05/12 11:09:52;;;;;;;1.10;1.00;;;;;;;12.21;100.00;92165.84;4957640;28;20023;-78
2023/05/12 11:12:18;;;;;;;2.63;1.20;;;;;;;12.96;100.00;92158.00;4940390;28;20050;-78
2023/05/12 11:14:45;;;;;;;1.55;1.20;;;;;;;13.40;100.00;92158.03;4943685;28;20031;-78
2023/05/12 11:17:11;;;;;;;2.97;1.20;;;;;;;13.63;100.00;92166.50;4966984;28;20035;-78
2023/05/12 11:19:38;;;;;;;1.40;1.10;;;;;;;13.87;100.00;92161.50;4970640;28;20022;-78
2023/05/12 11:22:06;;;;;;;2.47;1.38;;;;;;;13.68;100.00;92161.06;4956995;28;20070;-78
2023/05/12 11:24:32;;;;;;;1.58;1.17;;;;;;;13.58;100.00;92161.38;4956316;28;20102;-77